Monday, October 15, 2018, 4:41 AM EDT
Back to Local

KTTN, Trenton Mercer County Airport

Location: Trenton, NJ, United States Lat: 40.283
Local Time: 4:41 AM EDT ( 8:41 GMT) Lon: -74.817
Time Zone: US/Eastern Elev: 213 ft

Show me the last for .
Show Decoded

2018-10-15 03:53 METAR KTTN 150753Z AUTO 14004KT 10SM OVC026 12/10 A3017 RMK AO2 RAE03B32E41
                 SLP210 P0000 T01170100 =
2018-10-15 03:10 METAR KTTN 150710Z AUTO 00000KT 10SM BKN028 OVC038 12/09 A3018 RMK AO2 RAE03
                 P0000 T01170094 =
2018-10-15 02:53 METAR KTTN 150653Z AUTO 12003KT 9SM -RA OVC036 12/09 A3019 RMK AO2 RAB45 SLP216
                 P0000 T01170094 =
2018-10-15 01:53 METAR KTTN 150553Z AUTO 00000KT 10SM OVC033 12/09 A3020 RMK AO2 SLP221 T01220089
                 10122 20106 56011 =
2018-10-15 00:53 METAR KTTN 150453Z AUTO 12003KT 10SM OVC036 11/09 A3020 RMK AO2 SLP222 T01110094
                 401390050 =
2018-10-14 23:53 METAR KTTN 150353Z AUTO 00000KT 10SM BKN044 OVC065 11/09 A3021 RMK AO2 SLP226
                 T01110094 =
2018-10-14 22:53 METAR KTTN 150253Z AUTO 00000KT 10SM FEW046 SCT070 BKN095 11/08 A3023 RMK AO2
                 SLP232 T01110078 53004 =
2018-10-14 21:53 METAR KTTN 150153Z 00000KT 10SM OVC100 12/08 A3022 RMK AO2 SLP228 T01170083 =
2018-10-14 20:53 METAR KTTN 150053Z 00000KT 10SM OVC110 12/08 A3022 RMK AO2 SLP227 T01220078 =
2018-10-14 19:53 METAR KTTN 142353Z 00000KT 10SM OVC110 12/07 A3022 RMK AO2 SLP228 T01220072
                 10139 20117 55000 =
2018-10-14 18:53 METAR KTTN 142253Z 24003KT 10SM OVC080 13/07 A3021 RMK AO2 SLP223 T01280067 =
2018-10-14 17:53 METAR KTTN 142153Z 19004KT 10SM OVC080 13/06 A3020 RMK AO2 SLP220 T01280061 =
2018-10-14 16:53 METAR KTTN 142053Z 22004KT 10SM OVC085 13/06 A3022 RMK AO2 SLP228 T01330061
                 56003 =
2018-10-14 15:53 METAR KTTN 141953Z 22006KT 10SM OVC100 13/06 A3023 RMK AO2 SLP232 T01330061 =
2018-10-14 14:53 METAR KTTN 141853Z 00000KT 10SM CLR 13/06 A3022 RMK AO2 SLP227 T01330056 =
2018-10-14 13:53 METAR KTTN 141753Z 20005KT 10SM CLR 13/06 A3023 RMK AO2 SLP232 T01330056 10133
                 20072 58011 =
2018-10-14 12:53 METAR KTTN 141653Z 19004KT 10SM CLR 13/06 A3026 RMK AO2 SLP241 T01280056 =
2018-10-14 11:53 METAR KTTN 141553Z 22004KT 10SM CLR 12/07 A3027 RMK AO2 SLP243 T01220067 =
2018-10-14 10:53 METAR KTTN 141453Z 34003KT 10SM CLR 12/08 A3027 RMK AO2 SLP243 T01170078 51018 =
2018-10-14 09:53 METAR KTTN 141353Z 00000KT 10SM CLR 11/07 A3026 RMK AO2 SLP240 T01060072 =
2018-10-14 08:53 METAR KTTN 141253Z 34003KT 10SM CLR 08/07 A3023 RMK AO2 SLP232 T00830067 =
2018-10-14 07:53 METAR KTTN 141153Z 31004KT 10SM CLR 07/06 A3021 RMK AO2 SLP225 70003 T00720056
                 10072 20050 51009 =
2018-10-14 06:53 METAR KTTN 141053Z 00000KT 10SM CLR 07/06 A3021 RMK AO2 SLP224 T00670056 =
2018-10-14 05:53 METAR KTTN 140953Z 00000KT 10SM CLR 06/05 A3019 RMK AO2 SLP218 T00610050 =
2018-10-14 04:53 METAR KTTN 140853Z AUTO 00000KT 10SM CLR 06/04 A3018 RMK AO2 SLP215 T00560044
                 53011 =

Support USWX by starting your Amazon purchase here.